createdAt,value
2022-11-27T00:00:42.126Z,100325.37
2022-11-27T00:06:16.372Z,100325.30
2022-11-27T00:11:22.376Z,100326.38
2022-11-27T00:16:28.078Z,100330.62
2022-11-27T00:21:32.803Z,100330.66
2022-11-27T00:26:38.164Z,100324.52
2022-11-27T00:31:42.085Z,100323.16
2022-11-27T00:36:48.231Z,100327.46
2022-11-27T00:41:52.476Z,100325.34
2022-11-27T00:46:56.548Z,100317.27
2022-11-27T00:52:00.459Z,100315.39
2022-11-27T00:57:05.444Z,100322.67
2022-11-27T01:02:09.741Z,100316.51
2022-11-27T01:07:13.680Z,100312.16
2022-11-27T01:12:17.037Z,100314.30
2022-11-27T01:17:20.552Z,100312.23
2022-11-27T01:22:24.044Z,100309.80
2022-11-27T01:27:27.522Z,100310.48
2022-11-27T01:32:31.177Z,100311.55
2022-11-27T01:37:37.254Z,100311.77
2022-11-27T01:42:41.136Z,100310.59
2022-11-27T01:48:02.938Z,100309.73
2022-11-27T01:53:32.363Z,100305.80
2022-11-27T01:58:36.700Z,100300.89
2022-11-27T02:03:40.223Z,100299.08
2022-11-27T02:08:43.909Z,100307.16
2022-11-27T02:14:27.027Z,100307.11
2022-11-27T02:19:33.292Z,100308.05
2022-11-27T02:25:01.909Z,100302.96
2022-11-27T02:30:07.980Z,100311.28
2022-11-27T02:35:20.205Z,100310.84
2022-11-27T02:40:43.075Z,100312.86
2022-11-27T02:45:51.977Z,100319.66
2022-11-27T02:50:56.626Z,100327.80
2022-11-27T02:56:04.151Z,100332.59
2022-11-27T03:01:09.666Z,100333.50
2022-11-27T03:06:19.914Z,100335.17
2022-11-27T03:11:23.610Z,100337.52
2022-11-27T03:16:48.957Z,100337.19
2022-11-27T03:22:02.386Z,100342.15
2022-11-27T03:27:06.436Z,100344.92
2022-11-27T03:32:10.411Z,100338.36
2022-11-27T03:37:14.585Z,100336.67
2022-11-27T03:42:43.006Z,100342.39
2022-11-27T03:47:52.630Z,100342.41
2022-11-27T03:53:55.889Z,100344.17
2022-11-27T03:59:04.877Z,100348.84
2022-11-27T04:04:08.400Z,100347.77
2022-11-27T04:09:11.833Z,100344.91
2022-11-27T04:14:15.529Z,100345.09
2022-11-27T04:19:22.261Z,100348.38
2022-11-27T04:24:25.699Z,100343.86
2022-11-27T04:29:29.387Z,100345.52
2022-11-27T04:34:35.756Z,100347.84
2022-11-27T04:39:40.076Z,100350.14
2022-11-27T04:44:43.758Z,100355.10
2022-11-27T04:49:47.279Z,100348.23
2022-11-27T04:54:55.388Z,100344.38
2022-11-27T05:00:03.238Z,100337.08
2022-11-27T05:05:07.168Z,100333.70
2022-11-27T05:10:10.793Z,100336.63
2022-11-27T05:15:14.598Z,100334.48
2022-11-27T05:20:18.423Z,100333.21
2022-11-27T05:25:21.946Z,100338.61
2022-11-27T05:30:26.746Z,100345.95
2022-11-27T05:35:30.359Z,100345.80
2022-11-27T05:40:33.924Z,100350.42
2022-11-27T05:45:38.256Z,100363.14
2022-11-27T05:50:45.169Z,100362.14
2022-11-27T05:55:49.196Z,100361.02
2022-11-27T06:00:53.115Z,100358.36
2022-11-27T06:05:57.366Z,100352.12
2022-11-27T06:11:11.575Z,100347.73
2022-11-27T06:16:19.390Z,100347.80
2022-11-27T06:21:24.434Z,100344.52
2022-11-27T06:26:30.931Z,100352.86
2022-11-27T06:31:34.732Z,100356.80
2022-11-27T06:36:47.633Z,100361.88
2022-11-27T06:41:51.091Z,100358.14
2022-11-27T06:46:58.376Z,100345.33
2022-11-27T06:52:02.800Z,100343.91
2022-11-27T06:57:06.393Z,100341.93
2022-11-27T07:02:15.106Z,100343.96
2022-11-27T07:07:19.130Z,100341.10
2022-11-27T07:12:26.598Z,100340.13
2022-11-27T07:17:30.362Z,100337.16
2022-11-27T07:22:34.256Z,100334.20
2022-11-27T07:27:38.031Z,100340.73
2022-11-27T07:32:42.146Z,100340.48
2022-11-27T07:37:49.521Z,100346.75
2022-11-27T07:42:53.720Z,100354.14
2022-11-27T07:47:59.794Z,100353.38
2022-11-27T07:53:07.105Z,100351.41
2022-11-27T07:58:11.067Z,100351.89
2022-11-27T08:03:28.438Z,100353.44
2022-11-27T08:08:32.809Z,100354.33
2022-11-27T08:13:36.682Z,100357.44
2022-11-27T08:18:43.638Z,100361.37
2022-11-27T08:23:54.054Z,100361.30
2022-11-27T08:28:58.206Z,100357.99
2022-11-27T08:34:01.279Z,100359.91
2022-11-27T08:39:04.381Z,100347.61
2022-11-27T08:44:09.461Z,100344.23
2022-11-27T08:49:12.666Z,100340.11
2022-11-27T08:54:15.837Z,100342.20
2022-11-27T08:59:19.175Z,100336.57
2022-11-27T09:04:22.309Z,100344.29
2022-11-27T09:09:25.335Z,100348.63
2022-11-27T09:14:28.830Z,100341.70
2022-11-27T09:19:32.319Z,100340.40
2022-11-27T09:24:40.908Z,100343.14
2022-11-27T09:29:44.835Z,100338.92
2022-11-27T09:34:49.088Z,100343.98
2022-11-27T09:39:59.408Z,100346.55
2022-11-27T09:45:05.841Z,100348.38
2022-11-27T09:50:16.171Z,100346.51
2022-11-27T09:55:38.182Z,100346.08
2022-11-27T10:00:43.449Z,100340.59
2022-11-27T10:06:26.798Z,100337.20
2022-11-27T10:11:55.022Z,100331.13
2022-11-27T10:17:03.645Z,100326.77
2022-11-27T10:22:21.286Z,100316.67
2022-11-27T10:27:36.284Z,100320.23
2022-11-27T10:32:55.136Z,100315.15
2022-11-27T10:38:07.105Z,100308.58
2022-11-27T10:43:19.210Z,100310.69
2022-11-27T10:48:23.775Z,100307.19
2022-11-27T10:53:36.690Z,100300.14
2022-11-27T10:58:44.666Z,100299.02
2022-11-27T11:04:31.149Z,100291.65
2022-11-27T11:09:34.720Z,100287.04
2022-11-27T11:14:37.769Z,100286.30
2022-11-27T11:19:40.805Z,100276.34
2022-11-27T11:24:49.146Z,100269.97
2022-11-27T11:29:57.028Z,100266.44
2022-11-27T11:35:05.011Z,100260.37
2022-11-27T11:40:22.224Z,100263.92
2022-11-27T11:45:31.250Z,100262.72
2022-11-27T11:50:53.559Z,100260.70
2022-11-27T12:03:04.775Z,100249.45
2022-11-27T12:09:51.364Z,100249.88
2022-11-27T12:20:07.946Z,100245.67
2022-11-27T12:25:36.317Z,100230.76
2022-11-27T12:31:05.857Z,100230.04
2022-11-27T12:36:34.683Z,100230.08
2022-11-27T12:42:02.086Z,100230.96
2022-11-27T12:47:23.392Z,100233.55
2022-11-27T12:52:41.214Z,100230.42
2022-11-27T12:57:50.048Z,100233.64
2022-11-27T13:03:11.416Z,100227.69
2022-11-27T13:08:20.946Z,100217.40
2022-11-27T13:13:24.587Z,100219.76
2022-11-27T13:19:02.432Z,100213.30
2022-11-27T13:24:13.267Z,100210.23
2022-11-27T13:29:55.432Z,100211.34
2022-11-27T13:35:03.116Z,100212.58
2022-11-27T13:40:18.849Z,100210.54
2022-11-27T13:45:29.973Z,100209.84
2022-11-27T13:50:43.654Z,100211.94
2022-11-27T13:55:55.090Z,100208.15
2022-11-27T14:00:59.054Z,100210.02
2022-11-27T14:06:02.244Z,100209.25
2022-11-27T14:11:13.003Z,100205.66
2022-11-27T14:16:26.933Z,100203.08
2022-11-27T14:21:35.881Z,100199.59
2022-11-27T14:26:41.360Z,100206.17
2022-11-27T14:31:44.474Z,100212.38
2022-11-27T14:36:54.754Z,100214.79
2022-11-27T14:42:00.442Z,100211.32
2022-11-27T14:47:08.416Z,100201.66
2022-11-27T14:52:16.735Z,100200.70
2022-11-27T14:57:26.741Z,100198.34
2022-11-27T15:02:31.930Z,100192.19
2022-11-27T15:07:45.439Z,100189.98
2022-11-27T15:12:50.404Z,100188.91
2022-11-27T15:17:59.196Z,100184.76
2022-11-27T15:23:02.942Z,100184.69
2022-11-27T15:28:29.574Z,100176.83
2022-11-27T15:33:34.127Z,100177.53
2022-11-27T15:38:37.262Z,100184.01
2022-11-27T15:43:40.244Z,100190.15
2022-11-27T15:48:43.234Z,100187.52
2022-11-27T15:53:47.524Z,100183.10
2022-11-27T15:58:50.874Z,100183.20
2022-11-27T16:03:54.259Z,100177.80
2022-11-27T16:08:59.068Z,100178.05
2022-11-27T16:14:02.342Z,100174.75
2022-11-27T16:19:06.608Z,100174.77
2022-11-27T16:24:13.410Z,100175.52
2022-11-27T16:29:16.419Z,100171.95
2022-11-27T16:34:19.546Z,100170.95
2022-11-27T16:39:24.455Z,100167.23
2022-11-27T16:44:27.790Z,100157.17
2022-11-27T16:49:31.118Z,100155.79
2022-11-27T16:54:34.300Z,100150.71
2022-11-27T16:59:38.505Z,100147.62
2022-11-27T17:04:42.981Z,100150.72
2022-11-27T17:09:46.737Z,100152.25
2022-11-27T17:14:50.461Z,100150.52
2022-11-27T17:20:00.369Z,100151.61
2022-11-27T17:25:05.421Z,100144.03
2022-11-27T17:30:09.447Z,100140.01
2022-11-27T17:35:13.332Z,100135.60
2022-11-27T17:40:18.558Z,100129.70
2022-11-27T17:45:22.539Z,100122.73
2022-11-27T17:50:26.565Z,100122.31
2022-11-27T17:55:34.257Z,100125.39
2022-11-27T18:00:39.035Z,100117.61
2022-11-27T18:05:42.480Z,100109.63
2022-11-27T18:10:46.871Z,100104.27
2022-11-27T18:15:50.695Z,100098.14
2022-11-27T18:20:54.628Z,100092.87
2022-11-27T18:25:58.045Z,100088.90
2022-11-27T18:31:08.980Z,100079.80
2022-11-27T18:36:14.058Z,100071.42
2022-11-27T18:41:21.187Z,100068.39
2022-11-27T18:46:25.029Z,100066.74
2022-11-27T18:51:29.336Z,100062.01
2022-11-27T18:56:34.318Z,100057.44
2022-11-27T19:01:42.322Z,100057.29
2022-11-27T19:06:46.709Z,100059.09
2022-11-27T19:11:50.144Z,100060.34
2022-11-27T19:16:54.411Z,100068.27
2022-11-27T19:22:02.317Z,100077.25
2022-11-27T19:27:06.910Z,100077.14
2022-11-27T19:32:15.126Z,100072.91
2022-11-27T19:37:28.860Z,100071.83
2022-11-27T19:42:42.228Z,100074.42
2022-11-27T19:47:47.046Z,100071.84
2022-11-27T19:53:02.758Z,100061.57
2022-11-27T19:58:08.270Z,100055.91
2022-11-27T20:03:13.513Z,100054.26
2022-11-27T20:08:18.479Z,100051.92
2022-11-27T20:13:24.995Z,100050.06
2022-11-27T20:18:29.878Z,100043.50
2022-11-27T20:23:35.360Z,100035.98
2022-11-27T20:28:42.173Z,100024.31
2022-11-27T20:33:45.818Z,100013.27
2022-11-27T20:39:00.855Z,100007.22
2022-11-27T20:44:13.835Z,100003.95
2022-11-27T20:49:21.454Z,100012.88
2022-11-27T20:54:43.412Z,100004.12
2022-11-27T20:59:54.695Z,99998.40
2022-11-27T21:04:59.981Z,100007.78
2022-11-27T21:10:06.560Z,100000.55
2022-11-27T21:15:16.671Z,100005.80
2022-11-27T21:20:21.337Z,100004.23
2022-11-27T21:25:25.789Z,100005.86
2022-11-27T21:30:29.432Z,99999.23
2022-11-27T21:35:40.538Z,99998.92
2022-11-27T21:46:20.322Z,99999.56
2022-11-27T21:57:08.917Z,99993.45
2022-11-27T22:02:13.345Z,99989.97
2022-11-27T22:07:19.223Z,99983.54
2022-11-27T22:12:23.983Z,99977.46
2022-11-27T22:22:47.907Z,99971.98
2022-11-27T22:27:51.860Z,99966.02
2022-11-27T22:32:59.753Z,99966.29
2022-11-27T22:38:06.062Z,99962.30
2022-11-27T22:43:22.107Z,99949.97
2022-11-27T22:48:25.591Z,99943.99
2022-11-27T22:53:29.240Z,99946.53
2022-11-27T22:58:41.602Z,99943.30
2022-11-27T23:03:46.046Z,99934.50
2022-11-27T23:14:34.554Z,99908.67
2022-11-27T23:20:12.609Z,99901.89
2022-11-27T23:26:14.727Z,99901.44
2022-11-27T23:31:40.174Z,99901.91
2022-11-27T23:37:04.246Z,99894.21
2022-11-27T23:42:08.249Z,99898.05
2022-11-27T23:47:12.313Z,99902.41
2022-11-27T23:52:22.144Z,99902.79
2022-11-27T23:57:30.056Z,99895.91
